Terminal Aerodrome Forecast
Issued by NWS Albuquerque, NM

Home | Current Version | Previous Version | Text Only | Print | Product List | Glossary On
Versions: 1 2 3 4 5 6 7 8 9 10 11 12 13 14 15 16 17 18
000
FTUS45 KABQ 240536
TAFABQ
TAF
KABQ 240536Z 2406/2506 VRB05KT P6SM SCT100
      TEMPO 2406/2408 35008KT BKN100
     FM241900 28010G15KT P6SM VCTS SCT070CB BKN120
     FM242100 32010G16KT P6SM VCSH SCT070 BKN120
     FM250000 33010KT P6SM FEW070 FEW150=

USA.gov is the U.S. government's official web portal to all federal, state and local government web resources and services.